sensor_id;sensor_type;location;lat;lon;timestamp;temperature;humidity
80232;DHT22;74189;42.124;24.752;2023-12-20T00:01:22;4.30;63.50
80232;DHT22;74189;42.124;24.752;2023-12-20T00:03:47;4.30;62.70
80232;DHT22;74189;42.124;24.752;2023-12-20T00:06:13;4.30;62.80
80232;DHT22;74189;42.124;24.752;2023-12-20T00:08:39;4.20;63.00
80232;DHT22;74189;42.124;24.752;2023-12-20T00:11:04;4.30;63.10
80232;DHT22;74189;42.124;24.752;2023-12-20T00:13:30;4.30;63.10
80232;DHT22;74189;42.124;24.752;2023-12-20T00:15:56;4.20;63.90
80232;DHT22;74189;42.124;24.752;2023-12-20T00:18:21;4.10;62.60
80232;DHT22;74189;42.124;24.752;2023-12-20T00:20:47;4.10;62.80
80232;DHT22;74189;42.124;24.752;2023-12-20T00:23:12;4.20;63.10
80232;DHT22;74189;42.124;24.752;2023-12-20T00:25:38;4.10;63.10
80232;DHT22;74189;42.124;24.752;2023-12-20T00:28:04;4.20;63.20
80232;DHT22;74189;42.124;24.752;2023-12-20T00:30:30;4.10;62.50
80232;DHT22;74189;42.124;24.752;2023-12-20T00:32:56;4.10;62.30
80232;DHT22;74189;42.124;24.752;2023-12-20T00:35:21;4.10;62.40
80232;DHT22;74189;42.124;24.752;2023-12-20T00:37:47;4.10;62.90
80232;DHT22;74189;42.124;24.752;2023-12-20T00:40:13;4.10;63.30
80232;DHT22;74189;42.124;24.752;2023-12-20T00:42:39;4.10;63.80
80232;DHT22;74189;42.124;24.752;2023-12-20T00:45:05;4.10;63.90
80232;DHT22;74189;42.124;24.752;2023-12-20T00:47:31;4.10;64.10
80232;DHT22;74189;42.124;24.752;2023-12-20T00:49:57;4.20;63.90
80232;DHT22;74189;42.124;24.752;2023-12-20T00:52:23;4.20;63.80
80232;DHT22;74189;42.124;24.752;2023-12-20T00:54:49;4.10;63.60
80232;DHT22;74189;42.124;24.752;2023-12-20T00:57:14;4.20;63.50
80232;DHT22;74189;42.124;24.752;2023-12-20T00:59:40;4.20;63.50
80232;DHT22;74189;42.124;24.752;2023-12-20T01:02:06;4.20;63.50
80232;DHT22;74189;42.124;24.752;2023-12-20T01:04:32;4.20;63.40
80232;DHT22;74189;42.124;24.752;2023-12-20T01:06:58;4.20;63.40
80232;DHT22;74189;42.124;24.752;2023-12-20T01:09:23;4.20;63.40
80232;DHT22;74189;42.124;24.752;2023-12-20T01:11:52;4.20;63.70
80232;DHT22;74189;42.124;24.752;2023-12-20T01:14:17;4.20;63.80
80232;DHT22;74189;42.124;24.752;2023-12-20T01:16:43;4.20;63.80
80232;DHT22;74189;42.124;24.752;2023-12-20T01:19:09;4.20;62.60
80232;DHT22;74189;42.124;24.752;2023-12-20T01:21:34;4.20;62.70
80232;DHT22;74189;42.124;24.752;2023-12-20T01:24:00;4.20;63.10
80232;DHT22;74189;42.124;24.752;2023-12-20T01:26:26;4.10;63.10
80232;DHT22;74189;42.124;24.752;2023-12-20T01:28:51;4.20;63.20
80232;DHT22;74189;42.124;24.752;2023-12-20T01:31:17;4.10;62.80
80232;DHT22;74189;42.124;24.752;2023-12-20T01:33:43;4.10;62.60
80232;DHT22;74189;42.124;24.752;2023-12-20T01:36:08;4.00;61.60
80232;DHT22;74189;42.124;24.752;2023-12-20T01:38:34;3.90;61.30
80232;DHT22;74189;42.124;24.752;2023-12-20T01:41:00;4.00;62.50
80232;DHT22;74189;42.124;24.752;2023-12-20T01:43:25;4.00;63.20
80232;DHT22;74189;42.124;24.752;2023-12-20T01:45:52;3.90;63.80
80232;DHT22;74189;42.124;24.752;2023-12-20T01:48:18;4.00;64.20
80232;DHT22;74189;42.124;24.752;2023-12-20T01:50:45;4.00;65.30
80232;DHT22;74189;42.124;24.752;2023-12-20T01:53:12;4.00;63.50
80232;DHT22;74189;42.124;24.752;2023-12-20T01:55:41;4.00;63.50
80232;DHT22;74189;42.124;24.752;2023-12-20T01:58:08;4.00;63.70
80232;DHT22;74189;42.124;24.752;2023-12-20T02:00:35;4.10;63.90
80232;DHT22;74189;42.124;24.752;2023-12-20T02:03:02;4.00;63.80
80232;DHT22;74189;42.124;24.752;2023-12-20T02:05:33;4.10;64.20
80232;DHT22;74189;42.124;24.752;2023-12-20T02:08:00;4.00;63.70
80232;DHT22;74189;42.124;24.752;2023-12-20T02:10:26;4.00;63.50
80232;DHT22;74189;42.124;24.752;2023-12-20T02:12:52;4.00;63.50
80232;DHT22;74189;42.124;24.752;2023-12-20T02:15:18;4.00;63.50
80232;DHT22;74189;42.124;24.752;2023-12-20T02:17:45;4.10;63.60
80232;DHT22;74189;42.124;24.752;2023-12-20T02:20:11;4.10;63.40
80232;DHT22;74189;42.124;24.752;2023-12-20T02:22:37;4.00;63.20
80232;DHT22;74189;42.124;24.752;2023-12-20T02:25:03;4.10;62.80
80232;DHT22;74189;42.124;24.752;2023-12-20T02:27:29;4.00;62.60
80232;DHT22;74189;42.124;24.752;2023-12-20T02:29:55;4.00;62.80
80232;DHT22;74189;42.124;24.752;2023-12-20T02:32:21;4.00;63.30
80232;DHT22;74189;42.124;24.752;2023-12-20T02:34:48;4.00;63.20
80232;DHT22;74189;42.124;24.752;2023-12-20T02:37:14;4.00;63.30
80232;DHT22;74189;42.124;24.752;2023-12-20T02:39:40;4.00;62.90
80232;DHT22;74189;42.124;24.752;2023-12-20T02:42:06;4.00;63.10
80232;DHT22;74189;42.124;24.752;2023-12-20T02:44:31;4.00;62.20
80232;DHT22;74189;42.124;24.752;2023-12-20T02:46:57;3.90;62.10
80232;DHT22;74189;42.124;24.752;2023-12-20T02:49:22;3.90;62.30
80232;DHT22;74189;42.124;24.752;2023-12-20T02:51:48;3.80;61.70
80232;DHT22;74189;42.124;24.752;2023-12-20T02:54:14;3.80;61.50
80232;DHT22;74189;42.124;24.752;2023-12-20T02:56:39;3.80;61.60
80232;DHT22;74189;42.124;24.752;2023-12-20T02:59:05;3.70;61.80
80232;DHT22;74189;42.124;24.752;2023-12-20T03:01:31;3.70;60.90
80232;DHT22;74189;42.124;24.752;2023-12-20T03:03:57;3.60;60.70
80232;DHT22;74189;42.124;24.752;2023-12-20T03:06:22;3.60;61.30
80232;DHT22;74189;42.124;24.752;2023-12-20T03:08:48;3.50;61.80
80232;DHT22;74189;42.124;24.752;2023-12-20T03:11:13;3.50;62.30
80232;DHT22;74189;42.124;24.752;2023-12-20T03:13:39;3.60;62.50
80232;DHT22;74189;42.124;24.752;2023-12-20T03:16:11;3.50;62.60
80232;DHT22;74189;42.124;24.752;2023-12-20T03:18:37;3.50;62.90
80232;DHT22;74189;42.124;24.752;2023-12-20T03:21:03;3.60;62.80
80232;DHT22;74189;42.124;24.752;2023-12-20T03:23:29;3.60;62.00
80232;DHT22;74189;42.124;24.752;2023-12-20T03:25:56;3.60;62.30
80232;DHT22;74189;42.124;24.752;2023-12-20T03:28:22;3.60;61.80
80232;DHT22;74189;42.124;24.752;2023-12-20T03:30:48;3.60;62.00
80232;DHT22;74189;42.124;24.752;2023-12-20T03:33:14;3.60;61.90
80232;DHT22;74189;42.124;24.752;2023-12-20T03:35:39;3.60;62.40
80232;DHT22;74189;42.124;24.752;2023-12-20T03:38:05;3.50;62.80
80232;DHT22;74189;42.124;24.752;2023-12-20T03:40:31;3.50;62.50
80232;DHT22;74189;42.124;24.752;2023-12-20T03:42:56;3.50;62.80
80232;DHT22;74189;42.124;24.752;2023-12-20T03:45:22;3.50;62.80
80232;DHT22;74189;42.124;24.752;2023-12-20T03:47:47;3.50;63.50
80232;DHT22;74189;42.124;24.752;2023-12-20T03:50:14;3.50;64.10
80232;DHT22;74189;42.124;24.752;2023-12-20T03:52:39;3.60;64.10
80232;DHT22;74189;42.124;24.752;2023-12-20T03:55:05;3.60;63.70
80232;DHT22;74189;42.124;24.752;2023-12-20T03:57:31;3.50;63.40
80232;DHT22;74189;42.124;24.752;2023-12-20T03:59:57;3.60;63.10
80232;DHT22;74189;42.124;24.752;2023-12-20T04:02:22;3.60;63.70
80232;DHT22;74189;42.124;24.752;2023-12-20T04:04:48;3.60;65.30
80232;DHT22;74189;42.124;24.752;2023-12-20T04:07:13;3.60;64.40
80232;DHT22;74189;42.124;24.752;2023-12-20T04:09:41;3.60;64.50
80232;DHT22;74189;42.124;24.752;2023-12-20T04:12:06;3.60;64.20
80232;DHT22;74189;42.124;24.752;2023-12-20T04:14:32;3.60;63.70
80232;DHT22;74189;42.124;24.752;2023-12-20T04:16:58;3.60;64.30
80232;DHT22;74189;42.124;24.752;2023-12-20T04:19:25;3.60;63.80
80232;DHT22;74189;42.124;24.752;2023-12-20T04:21:50;3.60;63.50
80232;DHT22;74189;42.124;24.752;2023-12-20T04:24:16;3.60;63.30
80232;DHT22;74189;42.124;24.752;2023-12-20T04:26:42;3.60;62.90
80232;DHT22;74189;42.124;24.752;2023-12-20T04:29:07;3.60;62.70
80232;DHT22;74189;42.124;24.752;2023-12-20T04:31:33;3.50;63.00
80232;DHT22;74189;42.124;24.752;2023-12-20T04:33:59;3.40;61.50
80232;DHT22;74189;42.124;24.752;2023-12-20T04:36:24;3.40;62.20
80232;DHT22;74189;42.124;24.752;2023-12-20T04:38:53;3.40;63.20
80232;DHT22;74189;42.124;24.752;2023-12-20T04:41:18;3.30;62.50
80232;DHT22;74189;42.124;24.752;2023-12-20T04:43:44;3.30;62.60
80232;DHT22;74189;42.124;24.752;2023-12-20T04:46:10;3.40;62.70
80232;DHT22;74189;42.124;24.752;2023-12-20T04:48:36;3.40;62.70
80232;DHT22;74189;42.124;24.752;2023-12-20T04:51:01;3.40;62.30
80232;DHT22;74189;42.124;24.752;2023-12-20T04:53:27;3.40;62.10
80232;DHT22;74189;42.124;24.752;2023-12-20T04:55:53;3.40;62.10
80232;DHT22;74189;42.124;24.752;2023-12-20T04:58:19;3.10;64.90
80232;DHT22;74189;42.124;24.752;2023-12-20T05:00:44;3.00;63.70
80232;DHT22;74189;42.124;24.752;2023-12-20T05:03:10;2.90;62.90
80232;DHT22;74189;42.124;24.752;2023-12-20T05:05:36;2.80;62.90
80232;DHT22;74189;42.124;24.752;2023-12-20T05:08:01;2.70;63.50
80232;DHT22;74189;42.124;24.752;2023-12-20T05:10:27;2.80;63.10
80232;DHT22;74189;42.124;24.752;2023-12-20T05:12:53;2.80;63.50
80232;DHT22;74189;42.124;24.752;2023-12-20T05:15:19;2.80;63.90
80232;DHT22;74189;42.124;24.752;2023-12-20T05:17:44;2.90;63.90
80232;DHT22;74189;42.124;24.752;2023-12-20T05:20:10;3.00;64.00
80232;DHT22;74189;42.124;24.752;2023-12-20T05:22:36;3.00;61.60
80232;DHT22;74189;42.124;24.752;2023-12-20T05:25:01;2.90;61.80
80232;DHT22;74189;42.124;24.752;2023-12-20T05:27:27;3.00;62.90
80232;DHT22;74189;42.124;24.752;2023-12-20T05:29:53;3.00;63.20
80232;DHT22;74189;42.124;24.752;2023-12-20T05:32:23;2.60;67.30
80232;DHT22;74189;42.124;24.752;2023-12-20T05:34:48;2.40;66.10
80232;DHT22;74189;42.124;24.752;2023-12-20T05:37:14;2.00;66.20
80232;DHT22;74189;42.124;24.752;2023-12-20T05:39:40;1.60;67.50
80232;DHT22;74189;42.124;24.752;2023-12-20T05:42:05;1.30;70.50
80232;DHT22;74189;42.124;24.752;2023-12-20T05:44:31;1.20;72.10
80232;DHT22;74189;42.124;24.752;2023-12-20T05:46:56;1.10;69.70
80232;DHT22;74189;42.124;24.752;2023-12-20T05:49:22;1.10;69.00
80232;DHT22;74189;42.124;24.752;2023-12-20T05:51:48;1.10;69.30
80232;DHT22;74189;42.124;24.752;2023-12-20T05:54:13;1.20;69.00
80232;DHT22;74189;42.124;24.752;2023-12-20T05:56:39;1.40;67.20
80232;DHT22;74189;42.124;24.752;2023-12-20T05:59:04;1.60;66.20
80232;DHT22;74189;42.124;24.752;2023-12-20T06:01:30;1.80;66.10
80232;DHT22;74189;42.124;24.752;2023-12-20T06:03:56;2.00;66.60
80232;DHT22;74189;42.124;24.752;2023-12-20T06:06:21;2.10;66.10
80232;DHT22;74189;42.124;24.752;2023-12-20T06:08:47;2.20;65.40
80232;DHT22;74189;42.124;24.752;2023-12-20T06:11:12;2.30;66.10
80232;DHT22;74189;42.124;24.752;2023-12-20T06:13:38;2.40;65.10
80232;DHT22;74189;42.124;24.752;2023-12-20T06:16:06;2.40;64.80
80232;DHT22;74189;42.124;24.752;2023-12-20T06:18:32;2.50;64.40
80232;DHT22;74189;42.124;24.752;2023-12-20T06:20:58;2.50;64.00
80232;DHT22;74189;42.124;24.752;2023-12-20T06:23:23;2.60;63.20
80232;DHT22;74189;42.124;24.752;2023-12-20T06:25:49;2.60;62.70
80232;DHT22;74189;42.124;24.752;2023-12-20T06:28:15;2.60;62.90
80232;DHT22;74189;42.124;24.752;2023-12-20T06:30:41;2.60;62.90
80232;DHT22;74189;42.124;24.752;2023-12-20T06:33:06;2.60;62.90
80232;DHT22;74189;42.124;24.752;2023-12-20T06:35:32;2.70;62.80
80232;DHT22;74189;42.124;24.752;2023-12-20T06:37:58;2.60;62.90
80232;DHT22;74189;42.124;24.752;2023-12-20T06:40:23;2.80;63.10
80232;DHT22;74189;42.124;24.752;2023-12-20T06:42:49;2.90;63.20
80232;DHT22;74189;42.124;24.752;2023-12-20T06:45:15;2.90;63.40
80232;DHT22;74189;42.124;24.752;2023-12-20T06:47:40;3.00;63.30
80232;DHT22;74189;42.124;24.752;2023-12-20T06:50:06;2.90;63.10
80232;DHT22;74189;42.124;24.752;2023-12-20T06:52:34;3.00;63.10
80232;DHT22;74189;42.124;24.752;2023-12-20T06:55:00;3.20;63.00
80232;DHT22;74189;42.124;24.752;2023-12-20T06:57:26;3.30;62.90
80232;DHT22;74189;42.124;24.752;2023-12-20T06:59:52;3.30;62.80
80232;DHT22;74189;42.124;24.752;2023-12-20T07:02:18;3.40;63.20
80232;DHT22;74189;42.124;24.752;2023-12-20T07:04:44;3.50;63.00
80232;DHT22;74189;42.124;24.752;2023-12-20T07:07:10;3.60;62.60
80232;DHT22;74189;42.124;24.752;2023-12-20T07:09:35;3.70;62.40
80232;DHT22;74189;42.124;24.752;2023-12-20T07:12:01;3.80;62.30
80232;DHT22;74189;42.124;24.752;2023-12-20T07:14:27;4.00;62.20
80232;DHT22;74189;42.124;24.752;2023-12-20T07:16:53;4.10;62.10
80232;DHT22;74189;42.124;24.752;2023-12-20T07:19:19;4.30;62.00
80232;DHT22;74189;42.124;24.752;2023-12-20T07:21:44;4.40;62.00
80232;DHT22;74189;42.124;24.752;2023-12-20T07:24:10;4.40;61.80
80232;DHT22;74189;42.124;24.752;2023-12-20T07:26:36;4.50;61.40
80232;DHT22;74189;42.124;24.752;2023-12-20T07:29:03;4.50;61.10
80232;DHT22;74189;42.124;24.752;2023-12-20T07:31:29;4.50;61.30
80232;DHT22;74189;42.124;24.752;2023-12-20T07:33:55;4.40;61.20
80232;DHT22;74189;42.124;24.752;2023-12-20T07:36:21;4.30;61.40
80232;DHT22;74189;42.124;24.752;2023-12-20T07:38:47;4.30;61.40
80232;DHT22;74189;42.124;24.752;2023-12-20T07:41:12;4.40;61.50
80232;DHT22;74189;42.124;24.752;2023-12-20T07:43:38;4.30;61.40
80232;DHT22;74189;42.124;24.752;2023-12-20T07:46:07;4.30;61.70
80232;DHT22;74189;42.124;24.752;2023-12-20T07:48:35;4.30;61.50
80232;DHT22;74189;42.124;24.752;2023-12-20T07:51:01;4.30;61.80
80232;DHT22;74189;42.124;24.752;2023-12-20T07:53:27;4.30;61.90
80232;DHT22;74189;42.124;24.752;2023-12-20T07:55:53;4.30;62.10
80232;DHT22;74189;42.124;24.752;2023-12-20T07:58:19;4.30;62.30
80232;DHT22;74189;42.124;24.752;2023-12-20T08:00:44;4.40;62.30
80232;DHT22;74189;42.124;24.752;2023-12-20T08:03:10;4.40;62.40
80232;DHT22;74189;42.124;24.752;2023-12-20T08:05:36;4.50;62.50
80232;DHT22;74189;42.124;24.752;2023-12-20T08:08:02;4.50;62.10
80232;DHT22;74189;42.124;24.752;2023-12-20T08:10:28;4.50;62.10
80232;DHT22;74189;42.124;24.752;2023-12-20T08:12:55;4.40;62.20
80232;DHT22;74189;42.124;24.752;2023-12-20T08:15:21;4.50;62.60
80232;DHT22;74189;42.124;24.752;2023-12-20T08:17:46;4.50;62.70
80232;DHT22;74189;42.124;24.752;2023-12-20T08:20:12;4.70;62.90
80232;DHT22;74189;42.124;24.752;2023-12-20T08:22:37;4.70;62.70
80232;DHT22;74189;42.124;24.752;2023-12-20T08:25:03;4.80;62.50
80232;DHT22;74189;42.124;24.752;2023-12-20T08:27:29;4.90;62.20
80232;DHT22;74189;42.124;24.752;2023-12-20T08:29:57;4.90;61.80
80232;DHT22;74189;42.124;24.752;2023-12-20T08:32:25;4.90;61.60
80232;DHT22;74189;42.124;24.752;2023-12-20T08:34:51;5.00;61.40
80232;DHT22;74189;42.124;24.752;2023-12-20T08:37:17;5.00;61.20
80232;DHT22;74189;42.124;24.752;2023-12-20T08:39:43;5.00;61.60
80232;DHT22;74189;42.124;24.752;2023-12-20T08:42:09;4.90;61.70
80232;DHT22;74189;42.124;24.752;2023-12-20T08:44:35;5.00;61.80
80232;DHT22;74189;42.124;24.752;2023-12-20T08:47:00;5.00;61.70
80232;DHT22;74189;42.124;24.752;2023-12-20T08:49:27;4.90;61.30
80232;DHT22;74189;42.124;24.752;2023-12-20T08:51:53;5.00;61.50
80232;DHT22;74189;42.124;24.752;2023-12-20T08:54:19;5.00;61.80
80232;DHT22;74189;42.124;24.752;2023-12-20T08:56:45;5.00;61.60
80232;DHT22;74189;42.124;24.752;2023-12-20T08:59:11;5.10;61.40
80232;DHT22;74189;42.124;24.752;2023-12-20T09:01:37;5.00;61.40
80232;DHT22;74189;42.124;24.752;2023-12-20T09:04:03;5.00;61.70
80232;DHT22;74189;42.124;24.752;2023-12-20T09:06:28;5.10;61.60
80232;DHT22;74189;42.124;24.752;2023-12-20T09:08:54;5.10;61.60
80232;DHT22;74189;42.124;24.752;2023-12-20T09:11:20;5.10;61.70
80232;DHT22;74189;42.124;24.752;2023-12-20T09:13:45;5.10;61.70
80232;DHT22;74189;42.124;24.752;2023-12-20T09:16:11;5.10;61.60
80232;DHT22;74189;42.124;24.752;2023-12-20T09:18:38;5.10;61.80
80232;DHT22;74189;42.124;24.752;2023-12-20T09:21:04;5.10;61.50
80232;DHT22;74189;42.124;24.752;2023-12-20T09:23:29;5.10;61.50
80232;DHT22;74189;42.124;24.752;2023-12-20T09:25:55;5.20;61.90
80232;DHT22;74189;42.124;24.752;2023-12-20T09:28:21;5.10;61.80
80232;DHT22;74189;42.124;24.752;2023-12-20T09:30:46;5.10;62.10
80232;DHT22;74189;42.124;24.752;2023-12-20T09:33:13;5.20;62.30
80232;DHT22;74189;42.124;24.752;2023-12-20T09:35:39;5.20;63.50
80232;DHT22;74189;42.124;24.752;2023-12-20T09:38:05;5.10;62.90
80232;DHT22;74189;42.124;24.752;2023-12-20T09:40:32;5.10;63.60
80232;DHT22;74189;42.124;24.752;2023-12-20T09:43:10;5.20;63.70
80232;DHT22;74189;42.124;24.752;2023-12-20T09:45:38;5.20;63.50
80232;DHT22;74189;42.124;24.752;2023-12-20T09:48:04;5.30;63.40
80232;DHT22;74189;42.124;24.752;2023-12-20T09:50:30;5.30;63.40
80232;DHT22;74189;42.124;24.752;2023-12-20T09:52:58;5.40;63.40
80232;DHT22;74189;42.124;24.752;2023-12-20T09:55:27;5.30;63.10
80232;DHT22;74189;42.124;24.752;2023-12-20T09:57:53;5.30;63.40
80232;DHT22;74189;42.124;24.752;2023-12-20T10:00:19;5.40;63.40
80232;DHT22;74189;42.124;24.752;2023-12-20T10:05:27;5.40;63.70
80232;DHT22;74189;42.124;24.752;2023-12-20T10:07:53;5.50;63.90
80232;DHT22;74189;42.124;24.752;2023-12-20T10:10:19;5.50;63.90
80232;DHT22;74189;42.124;24.752;2023-12-20T10:13:04;5.40;64.20
80232;DHT22;74189;42.124;24.752;2023-12-20T10:15:32;5.50;64.20
80232;DHT22;74189;42.124;24.752;2023-12-20T10:17:57;5.60;64.10
80232;DHT22;74189;42.124;24.752;2023-12-20T10:20:23;5.70;64.00
80232;DHT22;74189;42.124;24.752;2023-12-20T10:22:49;5.80;64.10
80232;DHT22;74189;42.124;24.752;2023-12-20T10:25:15;5.80;63.40
80232;DHT22;74189;42.124;24.752;2023-12-20T10:27:40;5.90;63.10
80232;DHT22;74189;42.124;24.752;2023-12-20T10:30:06;5.90;62.60
80232;DHT22;74189;42.124;24.752;2023-12-20T10:32:32;5.90;62.60
80232;DHT22;74189;42.124;24.752;2023-12-20T10:34:58;5.90;62.70
80232;DHT22;74189;42.124;24.752;2023-12-20T10:37:24;5.90;62.60
80232;DHT22;74189;42.124;24.752;2023-12-20T10:39:52;5.90;62.80
80232;DHT22;74189;42.124;24.752;2023-12-20T10:42:22;5.80;63.50
80232;DHT22;74189;42.124;24.752;2023-12-20T10:44:49;5.80;63.80
80232;DHT22;74189;42.124;24.752;2023-12-20T10:47:15;5.80;63.90
80232;DHT22;74189;42.124;24.752;2023-12-20T10:49:42;5.90;63.90
80232;DHT22;74189;42.124;24.752;2023-12-20T10:52:08;5.90;63.60
80232;DHT22;74189;42.124;24.752;2023-12-20T10:54:34;5.90;63.60
80232;DHT22;74189;42.124;24.752;2023-12-20T10:57:01;5.90;63.40
80232;DHT22;74189;42.124;24.752;2023-12-20T10:59:36;5.90;63.40
80232;DHT22;74189;42.124;24.752;2023-12-20T11:02:03;5.90;63.40
80232;DHT22;74189;42.124;24.752;2023-12-20T11:04:52;5.90;63.30
80232;DHT22;74189;42.124;24.752;2023-12-20T11:07:23;5.80;63.50
80232;DHT22;74189;42.124;24.752;2023-12-20T11:15:25;5.90;64.30
80232;DHT22;74189;42.124;24.752;2023-12-20T11:17:56;5.90;64.40
80232;DHT22;74189;42.124;24.752;2023-12-20T11:20:36;5.90;64.50
80232;DHT22;74189;42.124;24.752;2023-12-20T11:23:02;5.90;64.80
80232;DHT22;74189;42.124;24.752;2023-12-20T11:25:28;5.90;64.70
80232;DHT22;74189;42.124;24.752;2023-12-20T11:28:08;5.80;64.70
80232;DHT22;74189;42.124;24.752;2023-12-20T11:30:51;5.80;64.90
80232;DHT22;74189;42.124;24.752;2023-12-20T11:33:24;5.80;66.10
80232;DHT22;74189;42.124;24.752;2023-12-20T11:35:51;5.90;65.10
80232;DHT22;74189;42.124;24.752;2023-12-20T11:38:20;5.80;65.40
80232;DHT22;74189;42.124;24.752;2023-12-20T11:40:48;5.90;65.50
80232;DHT22;74189;42.124;24.752;2023-12-20T11:43:34;5.90;65.30
80232;DHT22;74189;42.124;24.752;2023-12-20T11:48:30;6.00;65.20
80232;DHT22;74189;42.124;24.752;2023-12-20T11:50:57;6.00;65.30
80232;DHT22;74189;42.124;24.752;2023-12-20T11:53:22;6.00;65.30
80232;DHT22;74189;42.124;24.752;2023-12-20T11:55:49;6.00;65.10
80232;DHT22;74189;42.124;24.752;2023-12-20T11:58:15;6.10;65.00
80232;DHT22;74189;42.124;24.752;2023-12-20T12:00:42;6.20;65.00
80232;DHT22;74189;42.124;24.752;2023-12-20T12:03:08;6.20;65.20
80232;DHT22;74189;42.124;24.752;2023-12-20T12:05:34;6.20;65.10
80232;DHT22;74189;42.124;24.752;2023-12-20T12:08:01;6.20;64.80
80232;DHT22;74189;42.124;24.752;2023-12-20T12:10:28;6.20;64.80
80232;DHT22;74189;42.124;24.752;2023-12-20T12:12:54;6.30;64.70
80232;DHT22;74189;42.124;24.752;2023-12-20T12:15:20;6.30;64.70
80232;DHT22;74189;42.124;24.752;2023-12-20T12:17:56;6.30;64.70
80232;DHT22;74189;42.124;24.752;2023-12-20T12:20:23;6.30;64.60
80232;DHT22;74189;42.124;24.752;2023-12-20T12:23:03;6.40;64.70
80232;DHT22;74189;42.124;24.752;2023-12-20T12:25:30;6.40;64.80
80232;DHT22;74189;42.124;24.752;2023-12-20T12:27:57;6.40;64.80
80232;DHT22;74189;42.124;24.752;2023-12-20T12:30:23;6.50;64.80
80232;DHT22;74189;42.124;24.752;2023-12-20T12:32:51;6.40;64.90
80232;DHT22;74189;42.124;24.752;2023-12-20T12:35:17;6.50;64.90
80232;DHT22;74189;42.124;24.752;2023-12-20T12:37:43;6.50;64.80
80232;DHT22;74189;42.124;24.752;2023-12-20T12:40:13;6.60;64.60
80232;DHT22;74189;42.124;24.752;2023-12-20T12:42:40;6.50;64.80
80232;DHT22;74189;42.124;24.752;2023-12-20T12:45:07;6.40;65.00
80232;DHT22;74189;42.124;24.752;2023-12-20T12:47:33;6.50;65.20
80232;DHT22;74189;42.124;24.752;2023-12-20T12:49:59;6.50;64.90
80232;DHT22;74189;42.124;24.752;2023-12-20T12:52:24;6.60;64.60
80232;DHT22;74189;42.124;24.752;2023-12-20T12:54:52;6.60;64.40
80232;DHT22;74189;42.124;24.752;2023-12-20T12:57:18;6.70;64.20
80232;DHT22;74189;42.124;24.752;2023-12-20T12:59:44;6.70;64.00
80232;DHT22;74189;42.124;24.752;2023-12-20T13:02:12;6.70;64.10
80232;DHT22;74189;42.124;24.752;2023-12-20T13:04:39;6.70;64.20
80232;DHT22;74189;42.124;24.752;2023-12-20T13:07:05;6.70;64.20
80232;DHT22;74189;42.124;24.752;2023-12-20T13:09:31;6.70;64.20
80232;DHT22;74189;42.124;24.752;2023-12-20T13:11:57;6.70;64.20
80232;DHT22;74189;42.124;24.752;2023-12-20T13:14:22;6.70;64.20
80232;DHT22;74189;42.124;24.752;2023-12-20T13:16:48;6.70;64.10
80232;DHT22;74189;42.124;24.752;2023-12-20T13:19:14;6.70;63.90
80232;DHT22;74189;42.124;24.752;2023-12-20T13:21:40;6.70;64.10
80232;DHT22;74189;42.124;24.752;2023-12-20T13:24:05;6.70;64.00
80232;DHT22;74189;42.124;24.752;2023-12-20T13:26:32;6.70;63.90
80232;DHT22;74189;42.124;24.752;2023-12-20T13:28:58;6.70;63.90
80232;DHT22;74189;42.124;24.752;2023-12-20T13:31:23;6.70;63.90
80232;DHT22;74189;42.124;24.752;2023-12-20T13:33:49;6.70;63.90
80232;DHT22;74189;42.124;24.752;2023-12-20T13:36:15;6.70;64.00
80232;DHT22;74189;42.124;24.752;2023-12-20T13:38:40;6.70;64.00
80232;DHT22;74189;42.124;24.752;2023-12-20T13:41:06;6.70;64.20
80232;DHT22;74189;42.124;24.752;2023-12-20T13:43:32;6.70;64.30
80232;DHT22;74189;42.124;24.752;2023-12-20T13:46:00;6.70;64.50
80232;DHT22;74189;42.124;24.752;2023-12-20T13:48:25;6.60;64.50
80232;DHT22;74189;42.124;24.752;2023-12-20T13:50:51;6.60;64.40
80232;DHT22;74189;42.124;24.752;2023-12-20T13:53:17;6.60;64.40
80232;DHT22;74189;42.124;24.752;2023-12-20T13:55:42;6.60;64.50
80232;DHT22;74189;42.124;24.752;2023-12-20T13:58:08;6.60;64.60
80232;DHT22;74189;42.124;24.752;2023-12-20T14:00:35;6.50;64.70
80232;DHT22;74189;42.124;24.752;2023-12-20T14:03:03;6.50;64.90
80232;DHT22;74189;42.124;24.752;2023-12-20T14:05:28;6.50;65.10
80232;DHT22;74189;42.124;24.752;2023-12-20T14:07:54;6.50;65.10
80232;DHT22;74189;42.124;24.752;2023-12-20T14:10:20;6.50;65.10
80232;DHT22;74189;42.124;24.752;2023-12-20T14:12:45;6.50;65.00
80232;DHT22;74189;42.124;24.752;2023-12-20T14:15:11;6.50;65.10
80232;DHT22;74189;42.124;24.752;2023-12-20T14:17:39;6.50;65.20
80232;DHT22;74189;42.124;24.752;2023-12-20T14:20:08;6.50;65.20
80232;DHT22;74189;42.124;24.752;2023-12-20T14:22:35;6.40;65.10
80232;DHT22;74189;42.124;24.752;2023-12-20T14:25:01;6.40;65.30
80232;DHT22;74189;42.124;24.752;2023-12-20T14:27:27;6.40;65.50
80232;DHT22;74189;42.124;24.752;2023-12-20T14:29:55;6.40;65.50
80232;DHT22;74189;42.124;24.752;2023-12-20T14:32:21;6.40;65.40
80232;DHT22;74189;42.124;24.752;2023-12-20T14:34:47;6.30;65.60
80232;DHT22;74189;42.124;24.752;2023-12-20T14:37:12;6.20;65.60
80232;DHT22;74189;42.124;24.752;2023-12-20T14:39:38;6.20;65.70
80232;DHT22;74189;42.124;24.752;2023-12-20T14:42:07;6.10;66.20
80232;DHT22;74189;42.124;24.752;2023-12-20T14:44:36;6.00;66.30
80232;DHT22;74189;42.124;24.752;2023-12-20T14:47:02;6.00;66.20
80232;DHT22;74189;42.124;24.752;2023-12-20T14:49:27;5.90;66.20
80232;DHT22;74189;42.124;24.752;2023-12-20T14:51:53;5.90;66.30
80232;DHT22;74189;42.124;24.752;2023-12-20T14:54:19;5.90;66.20
80232;DHT22;74189;42.124;24.752;2023-12-20T14:56:46;5.90;66.10
80232;DHT22;74189;42.124;24.752;2023-12-20T14:59:12;5.90;66.30
80232;DHT22;74189;42.124;24.752;2023-12-20T15:01:38;5.80;66.20
80232;DHT22;74189;42.124;24.752;2023-12-20T15:04:06;5.80;66.20
80232;DHT22;74189;42.124;24.752;2023-12-20T15:06:31;5.70;66.40
80232;DHT22;74189;42.124;24.752;2023-12-20T15:08:58;5.70;66.50
80232;DHT22;74189;42.124;24.752;2023-12-20T15:11:24;5.70;66.50
80232;DHT22;74189;42.124;24.752;2023-12-20T15:13:50;5.70;66.20
80232;DHT22;74189;42.124;24.752;2023-12-20T15:16:21;5.70;66.30
80232;DHT22;74189;42.124;24.752;2023-12-20T15:18:47;5.70;66.30
80232;DHT22;74189;42.124;24.752;2023-12-20T15:21:12;5.70;66.40
80232;DHT22;74189;42.124;24.752;2023-12-20T15:23:38;5.60;66.60
80232;DHT22;74189;42.124;24.752;2023-12-20T15:26:04;5.60;66.70
80232;DHT22;74189;42.124;24.752;2023-12-20T15:28:30;5.60;66.70
80232;DHT22;74189;42.124;24.752;2023-12-20T15:30:55;5.60;66.70
80232;DHT22;74189;42.124;24.752;2023-12-20T15:33:22;5.50;66.80
80232;DHT22;74189;42.124;24.752;2023-12-20T15:35:48;5.30;66.80